Terminal Aerodrome Forecast
Issued by NWS Charleston, WV

Current Version | Previous Version | Graphics & Text | Print | Product List | Glossary On
Versions: 1 2 3 4 5 6 7 8 9 10 11 12 13 14 15 16 17 18 19 20 21 22
000
FTUS41 KRLX 290100 AAA
TAFPKB
TAF AMD
KPKB 290154Z 2902/2924 27006KT 6SM BR BKN035
     FM290300 28005KT P6SM BKN050 OVC070
      TEMPO 2903/2905 -RA
     FM291100 25004KT P6SM SCT100
     FM291500 26008G15KT P6SM SCT050
     FM292000 27008G17KT P6SM BKN045=

USA.gov is the U.S. government's official web portal to all federal, state and local government web resources and services.